Time,TemperatureF,DewpointF,PressureIn,WindDirection,WindDirectionDegrees,WindSpeedMPH,WindSpeedGustMPH,Humidity,HourlyPrecipIn,Conditions,Clouds,dailyrainin,SoftwareType,DateUTC
2013-07-10 00:04:00,74.0,73.0,29.86,SE,128,0.0,-999.0,96,-99.99,,,0.11,weatherlink.com 1.10,2013-07-10 04:04:00,
2013-07-10 00:19:00,74.1,73.0,29.86,SSW,205,4.0,-999.0,96,-99.99,,,0.03,weatherlink.com 1.10,2013-07-10 04:19:00,
2013-07-10 00:34:00,73.7,71.0,29.85,SW,225,1.0,-999.0,90,-99.99,,,0.16,weatherlink.com 1.10,2013-07-10 04:34:00,
2013-07-10 00:49:00,74.0,73.0,29.85,SSE,162,4.0,-999.0,95,-99.99,,,0.16,weatherlink.com 1.10,2013-07-10 04:49:00,
2013-07-10 01:04:00,74.2,73.0,29.85,SSW,198,2.0,-999.0,96,-99.99,,,0.16,weatherlink.com 1.10,2013-07-10 05:04:00,
2013-07-10 01:19:00,74.1,73.0,29.84,South,186,6.0,-999.0,96,-99.99,,,0.16,weatherlink.com 1.10,2013-07-10 05:19:00,
2013-07-10 01:34:00,74.2,73.0,29.83,SSE,149,4.0,-999.0,95,-99.99,,,0.16,weatherlink.com 1.10,2013-07-10 05:34:00,
2013-07-10 01:49:00,74.2,72.0,29.83,SW,219,5.0,-999.0,94,-99.99,,,0.16,weatherlink.com 1.10,2013-07-10 05:49:00,
2013-07-10 02:04:00,74.3,73.0,29.83,South,187,7.0,-999.0,94,-99.99,,,0.16,weatherlink.com 1.10,2013-07-10 06:04:00,
2013-07-10 02:19:00,74.5,73.0,29.82,SW,219,4.0,-999.0,94,-99.99,,,0.16,weatherlink.com 1.10,2013-07-10 06:19:00,
2013-07-10 02:34:00,74.8,73.0,29.82,SSW,205,7.0,-999.0,94,-99.99,,,0.16,weatherlink.com 1.10,2013-07-10 06:34:00,
2013-07-10 02:49:00,74.9,73.0,29.82,SW,217,10.0,-999.0,94,-99.99,,,0.16,weatherlink.com 1.10,2013-07-10 06:49:00,
2013-07-10 03:04:00,74.8,73.0,29.82,WSW,247,2.0,-999.0,94,-99.99,,,0.16,weatherlink.com 1.10,2013-07-10 07:04:00,
2013-07-10 03:19:00,74.7,73.0,29.82,SSW,205,3.0,-999.0,95,-99.99,,,0.16,weatherlink.com 1.10,2013-07-10 07:19:00,
2013-07-10 03:34:00,74.8,73.0,29.82,SSE,156,0.0,-999.0,95,-99.99,,,0.16,weatherlink.com 1.10,2013-07-10 07:34:00,
2013-07-10 03:49:00,75.1,74.0,29.82,SSW,201,2.0,-999.0,95,-99.99,,,0.16,weatherlink.com 1.10,2013-07-10 07:49:00,
2013-07-10 04:04:00,75.4,74.0,29.82,South,171,6.0,-999.0,95,-99.99,,,0.16,weatherlink.com 1.10,2013-07-10 08:04:00,
2013-07-10 04:19:00,75.4,74.0,29.82,SSW,208,4.0,-999.0,95,-99.99,,,0.16,weatherlink.com 1.10,2013-07-10 08:19:00,
2013-07-10 04:34:00,75.2,74.0,29.82,SSW,207,2.0,-999.0,95,-99.99,,,0.16,weatherlink.com 1.10,2013-07-10 08:34:00,
2013-07-10 04:49:00,75.2,74.0,29.81,WSW,239,3.0,-999.0,95,-99.99,,,0.16,weatherlink.com 1.10,2013-07-10 08:49:00,
2013-07-10 05:04:00,75.1,74.0,29.81,South,184,0.0,-999.0,95,-99.99,,,0.16,weatherlink.com 1.10,2013-07-10 09:04:00,
2013-07-10 05:19:00,75.1,74.0,29.81,SW,214,1.0,-999.0,96,-99.99,,,0.16,weatherlink.com 1.10,2013-07-10 09:19:00,
2013-07-10 05:34:00,75.3,74.0,29.81,WSW,245,2.0,-999.0,96,-99.99,,,0.16,weatherlink.com 1.10,2013-07-10 09:34:00,
2013-07-10 05:49:00,75.3,74.0,29.81,South,183,3.0,-999.0,96,-99.99,,,0.16,weatherlink.com 1.10,2013-07-10 09:49:00,
2013-07-10 06:04:00,75.3,74.0,29.81,SSW,211,2.0,-999.0,96,-99.99,,,0.16,weatherlink.com 1.10,2013-07-10 10:04:00,
2013-07-10 06:19:00,75.5,74.0,29.81,ENE,77,4.0,-999.0,95,-99.99,,,0.16,weatherlink.com 1.10,2013-07-10 10:19:00,
2013-07-10 06:34:00,75.7,74.0,29.81,SW,222,5.0,-999.0,95,-99.99,,,0.16,weatherlink.com 1.10,2013-07-10 10:34:00,
2013-07-10 06:49:00,76.0,75.0,29.81,SW,214,3.0,-999.0,95,-99.99,,,0.16,weatherlink.com 1.10,2013-07-10 10:49:00,
2013-07-10 07:04:00,76.3,75.0,29.82,WSW,246,0.0,-999.0,95,-99.99,,,0.16,weatherlink.com 1.10,2013-07-10 11:04:00,
2013-07-10 07:19:00,76.9,75.0,29.82,SW,225,2.0,-999.0,94,-99.99,,,0.16,weatherlink.com 1.10,2013-07-10 11:19:00,
2013-07-10 07:34:00,77.2,75.0,29.82,South,190,0.0,-999.0,93,-99.99,,,0.16,weatherlink.com 1.10,2013-07-10 11:34:00,
2013-07-10 07:49:00,77.2,75.0,29.82,SSW,204,1.0,-999.0,94,-99.99,,,0.16,weatherlink.com 1.10,2013-07-10 11:49:00,
2013-07-10 08:04:00,78.2,76.0,29.82,NW,323,0.0,-999.0,93,-99.99,,,0.16,weatherlink.com 1.10,2013-07-10 12:04:00,
2013-07-10 08:19:00,79.1,76.0,29.82,West,273,1.0,-999.0,91,-99.99,,,0.16,weatherlink.com 1.10,2013-07-10 12:19:00,
2013-07-10 08:36:00,80.2,77.0,29.82,SW,232,2.0,-999.0,89,-99.99,,,0.16,weatherlink.com 1.10,2013-07-10 12:36:00,
2013-07-10 08:50:00,80.8,77.0,29.81,SW,231,4.0,-999.0,88,-99.99,,,0.16,weatherlink.com 1.10,2013-07-10 12:50:00,
2013-07-10 09:06:00,81.1,77.0,29.82,SW,229,3.0,-999.0,87,-99.99,,,0.16,weatherlink.com 1.10,2013-07-10 13:06:00,
2013-07-10 09:19:00,82.2,78.0,29.82,WNW,294,3.0,-999.0,86,-99.99,,,0.16,weatherlink.com 1.10,2013-07-10 13:19:00,
2013-07-10 09:41:00,82.9,78.0,29.82,WNW,294,1.0,-999.0,85,-99.99,,,0.16,weatherlink.com 1.10,2013-07-10 13:41:00,
2013-07-10 09:49:00,83.2,78.0,29.82,WNW,298,2.0,-999.0,85,-99.99,,,0.16,weatherlink.com 1.10,2013-07-10 13:49:00,
2013-07-10 10:04:00,84.2,79.0,29.81,SSW,207,2.0,-999.0,83,-99.99,,,0.16,weatherlink.com 1.10,2013-07-10 14:04:00,
2013-07-10 11:06:00,86.3,79.0,29.80,SSE,167,2.0,-999.0,79,-99.99,,,0.16,weatherlink.com 1.10,2013-07-10 15:06:00,
2013-07-10 11:19:00,86.7,79.0,29.80,WSW,248,3.0,-999.0,77,-99.99,,,0.16,weatherlink.com 1.10,2013-07-10 15:19:00,
2013-07-10 11:34:00,87.2,79.0,29.79,SSW,203,5.0,-999.0,76,-99.99,,,0.16,weatherlink.com 1.10,2013-07-10 15:34:00,
2013-07-10 11:49:00,87.9,80.0,29.79,SSW,195,4.0,-999.0,76,-99.99,,,0.16,weatherlink.com 1.10,2013-07-10 15:49:00,
2013-07-10 12:04:00,88.2,79.0,29.78,SSW,197,2.0,-999.0,73,-99.99,,,0.16,weatherlink.com 1.10,2013-07-10 16:04:00,
2013-07-10 12:19:00,89.7,78.0,29.78,WSW,256,8.0,-999.0,69,-99.99,,,0.16,weatherlink.com 1.10,2013-07-10 16:19:00,
2013-07-10 12:34:00,88.8,78.0,29.78,WNW,293,1.0,-999.0,71,-99.99,,,0.16,weatherlink.com 1.10,2013-07-10 16:34:00,
2013-07-10 12:49:00,89.2,79.0,29.77,WSW,245,2.0,-999.0,71,-99.99,,,0.16,weatherlink.com 1.10,2013-07-10 16:49:00,
2013-07-10 13:04:00,88.2,78.0,29.78,SSE,148,6.0,-999.0,71,-99.99,,,0.16,weatherlink.com 1.10,2013-07-10 17:04:00,
2013-07-10 13:19:00,86.4,78.0,29.77,SW,224,2.0,-999.0,75,-99.99,,,0.16,weatherlink.com 1.10,2013-07-10 17:19:00,
2013-07-10 13:34:00,85.0,77.0,29.77,SSW,207,0.0,-999.0,78,-99.99,,,0.16,weatherlink.com 1.10,2013-07-10 17:34:00,
2013-07-10 13:49:00,84.2,78.0,29.76,SW,224,0.0,-999.0,81,-99.99,,,0.16,weatherlink.com 1.10,2013-07-10 17:49:00,
2013-07-10 14:04:00,82.2,78.0,29.78,WNW,290,1.0,-999.0,87,-99.99,,,0.19,weatherlink.com 1.10,2013-07-10 18:04:00,
2013-07-10 14:19:00,81.2,78.0,29.77,NNW,345,2.0,-999.0,90,-99.99,,,0.22,weatherlink.com 1.10,2013-07-10 18:19:00,
2013-07-10 14:34:00,79.0,73.0,29.77,NW,308,2.0,-999.0,82,-99.99,,,0.28,weatherlink.com 1.10,2013-07-10 18:34:00,
2013-07-10 14:49:00,77.7,75.0,29.78,NW,304,2.0,-999.0,91,-99.99,,,0.28,weatherlink.com 1.10,2013-07-10 18:49:00,
2013-07-10 15:04:00,76.9,74.0,29.79,WNW,284,2.0,-999.0,91,-99.99,,,0.28,weatherlink.com 1.10,2013-07-10 19:04:00,
2013-07-10 15:19:00,76.7,74.0,29.81,SSW,201,13.0,-999.0,90,-99.99,,,0.28,weatherlink.com 1.10,2013-07-10 19:19:00,
2013-07-10 15:34:00,73.7,70.0,29.80,WNW,293,5.0,-999.0,87,-99.99,,,0.28,weatherlink.com 1.10,2013-07-10 19:34:00,
2013-07-10 15:49:00,72.5,70.0,29.79,South,184,1.0,-999.0,90,-99.99,,,0.28,weatherlink.com 1.10,2013-07-10 19:49:00,
2013-07-10 16:04:00,72.1,69.0,29.79,West,274,2.0,-999.0,89,-99.99,,,0.28,weatherlink.com 1.10,2013-07-10 20:04:00,
2013-07-10 16:19:00,72.1,68.0,29.79,SSE,150,2.0,-999.0,86,-99.99,,,0.28,weatherlink.com 1.10,2013-07-10 20:19:00,
2013-07-10 16:34:00,72.3,68.0,29.78,South,179,4.0,-999.0,87,-99.99,,,0.28,weatherlink.com 1.10,2013-07-10 20:34:00,
2013-07-10 16:49:00,73.6,69.0,29.78,West,276,3.0,-999.0,84,-99.99,,,0.28,weatherlink.com 1.10,2013-07-10 20:49:00,
2013-07-10 17:04:00,74.6,69.0,29.77,SW,233,2.0,-999.0,83,-99.99,,,0.28,weatherlink.com 1.10,2013-07-10 21:04:00,
2013-07-10 17:19:00,76.1,71.0,29.76,NW,311,2.0,-999.0,83,-99.99,,,0.28,weatherlink.com 1.10,2013-07-10 21:19:00,
2013-07-10 17:34:00,77.2,71.0,29.76,West,266,4.0,-999.0,82,-99.99,,,0.28,weatherlink.com 1.10,2013-07-10 21:34:00,
2013-07-10 17:49:00,77.5,72.0,29.76,NW,305,5.0,-999.0,84,-99.99,,,0.28,weatherlink.com 1.10,2013-07-10 21:49:00,
2013-07-10 18:04:00,79.8,74.0,29.75,WNW,291,5.0,-999.0,82,-99.99,,,0.28,weatherlink.com 1.10,2013-07-10 22:04:00,
2013-07-10 18:19:00,81.7,75.0,29.76,West,273,9.0,-999.0,79,-99.99,,,0.28,weatherlink.com 1.10,2013-07-10 22:19:00,
2013-07-10 18:34:00,82.8,75.0,29.76,WNW,297,8.0,-999.0,77,-99.99,,,0.28,weatherlink.com 1.10,2013-07-10 22:34:00,
2013-07-10 18:49:00,83.2,73.0,29.77,WNW,302,4.0,-999.0,72,-99.99,,,0.28,weatherlink.com 1.10,2013-07-10 22:49:00,
2013-07-10 19:04:00,82.7,72.0,29.77,NW,316,9.0,-999.0,69,-99.99,,,0.28,weatherlink.com 1.10,2013-07-10 23:04:00,
2013-07-10 19:19:00,82.8,69.0,29.78,WNW,295,7.0,-999.0,64,-99.99,,,0.28,weatherlink.com 1.10,2013-07-10 23:19:00,
2013-07-10 19:34:00,81.7,69.0,29.79,West,276,2.0,-999.0,66,-99.99,,,0.28,weatherlink.com 1.10,2013-07-10 23:34:00,
2013-07-10 19:49:00,81.0,69.0,29.80,WNW,285,3.0,-999.0,68,-99.99,,,0.28,weatherlink.com 1.10,2013-07-10 23:49:00,
2013-07-10 20:04:00,81.3,69.0,29.81,NW,315,1.0,-999.0,67,-99.99,,,0.28,weatherlink.com 1.10,2013-07-11 00:04:00,
2013-07-10 20:19:00,80.3,66.0,29.82,NW,309,3.0,-999.0,62,-99.99,,,0.28,weatherlink.com 1.10,2013-07-11 00:19:00,
2013-07-10 20:34:00,78.9,66.0,29.82,WNW,294,2.0,-999.0,64,-99.99,,,0.28,weatherlink.com 1.10,2013-07-11 00:34:00,
2013-07-10 20:49:00,77.6,66.0,29.83,NW,316,3.0,-999.0,67,-99.99,,,0.28,weatherlink.com 1.10,2013-07-11 00:49:00,
2013-07-10 21:04:00,76.2,66.0,29.84,NW,326,3.0,-999.0,71,-99.99,,,0.28,weatherlink.com 1.10,2013-07-11 01:04:00,
2013-07-10 21:19:00,75.3,67.0,29.84,NW,325,3.0,-999.0,74,-99.99,,,0.28,weatherlink.com 1.10,2013-07-11 01:19:00,
2013-07-10 21:34:00,74.4,66.0,29.85,NW,319,2.0,-999.0,76,-99.99,,,0.28,weatherlink.com 1.10,2013-07-11 01:34:00,
2013-07-10 21:49:00,73.5,66.0,29.86,WNW,297,0.0,-999.0,78,-99.99,,,0.28,weatherlink.com 1.10,2013-07-11 01:49:00,
2013-07-10 22:04:00,72.6,66.0,29.87,WNW,300,0.0,-999.0,79,-99.99,,,0.28,weatherlink.com 1.10,2013-07-11 02:04:00,
2013-07-10 22:31:00,71.8,65.0,29.89,WNW,290,1.0,-999.0,80,-99.99,,,0.28,weatherlink.com 1.10,2013-07-11 02:31:00,
2013-07-10 22:49:00,70.6,65.0,29.90,WNW,302,0.0,-999.0,82,-99.99,,,0.28,weatherlink.com 1.10,2013-07-11 02:49:00,
2013-07-10 23:04:00,70.0,65.0,29.90,WNW,302,0.0,-999.0,83,-99.99,,,0.28,weatherlink.com 1.10,2013-07-11 03:04:00,
2013-07-10 23:19:00,69.9,65.0,29.90,WNW,302,0.0,-999.0,83,-99.99,,,0.28,weatherlink.com 1.10,2013-07-11 03:19:00,
2013-07-10 23:34:00,70.0,65.0,29.91,WNW,286,0.0,-999.0,83,-99.99,,,0.28,weatherlink.com 1.10,2013-07-11 03:34:00,
2013-07-10 23:49:00,70.5,64.0,29.91,NW,314,2.0,-999.0,81,-99.99,,,0.28,weatherlink.com 1.10,2013-07-11 03:49:00,